sensor_id;sensor_type;location;lat;lon;timestamp;pressure;altitude;pressure_sealevel;temperature;humidity
70103;BME280;57470;50.034;15.256;2023-07-29T00:00:40;98826.91;;;21.21;84.42
70103;BME280;57470;50.034;15.256;2023-07-29T00:03:05;98829.34;;;20.72;86.03
70103;BME280;57470;50.034;15.256;2023-07-29T00:05:31;98828.28;;;20.58;86.51
70103;BME280;57470;50.034;15.256;2023-07-29T00:07:56;98830.59;;;20.47;88.05
70103;BME280;57470;50.034;15.256;2023-07-29T00:10:22;98830.44;;;20.63;87.93
70103;BME280;57470;50.034;15.256;2023-07-29T00:12:47;98828.59;;;20.78;87.12
70103;BME280;57470;50.034;15.256;2023-07-29T00:15:12;98821.50;;;20.77;86.47
70103;BME280;57470;50.034;15.256;2023-07-29T00:17:38;98823.91;;;20.87;86.33
70103;BME280;57470;50.034;15.256;2023-07-29T00:20:04;98819.84;;;20.91;85.39
70103;BME280;57470;50.034;15.256;2023-07-29T00:22:30;98826.16;;;20.98;85.69
70103;BME280;57470;50.034;15.256;2023-07-29T00:24:56;98819.00;;;20.90;85.47
70103;BME280;57470;50.034;15.256;2023-07-29T00:27:22;98821.41;;;20.85;85.41
70103;BME280;57470;50.034;15.256;2023-07-29T00:29:48;98817.22;;;20.83;85.90
70103;BME280;57470;50.034;15.256;2023-07-29T00:32:13;98814.63;;;20.75;86.33
70103;BME280;57470;50.034;15.256;2023-07-29T00:34:38;98815.16;;;20.85;85.08
70103;BME280;57470;50.034;15.256;2023-07-29T00:37:04;98810.59;;;20.85;85.34
70103;BME280;57470;50.034;15.256;2023-07-29T00:39:34;98812.53;;;20.62;86.28
70103;BME280;57470;50.034;15.256;2023-07-29T00:41:59;98808.25;;;20.68;86.71
70103;BME280;57470;50.034;15.256;2023-07-29T00:44:25;98806.97;;;20.64;86.23
70103;BME280;57470;50.034;15.256;2023-07-29T00:46:54;98812.28;;;20.57;86.14
70103;BME280;57470;50.034;15.256;2023-07-29T00:49:20;98801.66;;;20.70;85.85
70103;BME280;57470;50.034;15.256;2023-07-29T00:51:46;98802.56;;;20.63;86.11
70103;BME280;57470;50.034;15.256;2023-07-29T00:54:13;98810.69;;;20.77;85.65
70103;BME280;57470;50.034;15.256;2023-07-29T00:56:38;98798.00;;;20.63;85.88
70103;BME280;57470;50.034;15.256;2023-07-29T00:59:04;98808.91;;;20.70;85.87
70103;BME280;57470;50.034;15.256;2023-07-29T01:01:30;98809.53;;;20.42;87.64
70103;BME280;57470;50.034;15.256;2023-07-29T01:03:56;98802.50;;;20.33;87.48
70103;BME280;57470;50.034;15.256;2023-07-29T01:06:50;98808.28;;;20.30;87.85
70103;BME280;57470;50.034;15.256;2023-07-29T01:09:33;98810.16;;;20.30;88.17
70103;BME280;57470;50.034;15.256;2023-07-29T01:12:24;98814.09;;;20.42;87.34
70103;BME280;57470;50.034;15.256;2023-07-29T01:17:33;98819.69;;;20.40;86.82
70103;BME280;57470;50.034;15.256;2023-07-29T01:20:09;98809.31;;;20.06;88.50
70103;BME280;57470;50.034;15.256;2023-07-29T01:22:36;98813.72;;;20.07;88.51
70103;BME280;57470;50.034;15.256;2023-07-29T01:25:03;98814.28;;;20.17;88.50
70103;BME280;57470;50.034;15.256;2023-07-29T01:27:29;98820.44;;;20.11;88.80
70103;BME280;57470;50.034;15.256;2023-07-29T01:29:56;98806.69;;;20.21;88.64
70103;BME280;57470;50.034;15.256;2023-07-29T01:37:53;98802.97;;;20.22;88.51
70103;BME280;57470;50.034;15.256;2023-07-29T01:40:22;98808.81;;;20.26;88.13
70103;BME280;57470;50.034;15.256;2023-07-29T01:42:48;98809.75;;;20.18;88.62
70103;BME280;57470;50.034;15.256;2023-07-29T01:45:14;98805.59;;;20.30;87.94
70103;BME280;57470;50.034;15.256;2023-07-29T01:47:40;98814.19;;;19.88;90.49
70103;BME280;57470;50.034;15.256;2023-07-29T01:50:07;98812.50;;;19.87;90.80
70103;BME280;57470;50.034;15.256;2023-07-29T01:52:33;98813.53;;;20.09;89.78
70103;BME280;57470;50.034;15.256;2023-07-29T01:54:58;98818.44;;;20.05;90.22
70103;BME280;57470;50.034;15.256;2023-07-29T01:57:24;98814.97;;;20.19;89.43
70103;BME280;57470;50.034;15.256;2023-07-29T01:59:50;98808.97;;;20.09;89.67
70103;BME280;57470;50.034;15.256;2023-07-29T02:02:16;98811.50;;;19.88;90.70
70103;BME280;57470;50.034;15.256;2023-07-29T02:04:41;98811.13;;;20.37;88.75
70103;BME280;57470;50.034;15.256;2023-07-29T02:07:06;98817.59;;;20.28;88.96
70103;BME280;57470;50.034;15.256;2023-07-29T02:09:32;98823.97;;;20.35;88.91
70103;BME280;57470;50.034;15.256;2023-07-29T02:11:57;98819.09;;;20.30;88.93
70103;BME280;57470;50.034;15.256;2023-07-29T02:14:23;98811.78;;;20.39;88.99
70103;BME280;57470;50.034;15.256;2023-07-29T02:16:48;98813.91;;;20.43;88.33
70103;BME280;57470;50.034;15.256;2023-07-29T02:19:14;98812.47;;;20.55;88.37
70103;BME280;57470;50.034;15.256;2023-07-29T02:21:40;98813.84;;;20.51;88.42
70103;BME280;57470;50.034;15.256;2023-07-29T02:24:05;98814.47;;;20.39;88.91
70103;BME280;57470;50.034;15.256;2023-07-29T02:26:31;98824.47;;;20.53;88.75
70103;BME280;57470;50.034;15.256;2023-07-29T02:28:56;98815.69;;;20.51;89.13
70103;BME280;57470;50.034;15.256;2023-07-29T02:31:23;98820.81;;;20.23;90.99
70103;BME280;57470;50.034;15.256;2023-07-29T02:33:48;98819.22;;;20.37;89.58
70103;BME280;57470;50.034;15.256;2023-07-29T02:36:15;98821.66;;;20.23;90.67
70103;BME280;57470;50.034;15.256;2023-07-29T02:38:41;98821.66;;;20.23;90.65
70103;BME280;57470;50.034;15.256;2023-07-29T02:41:08;98817.41;;;20.29;90.49
70103;BME280;57470;50.034;15.256;2023-07-29T02:43:35;98818.69;;;20.18;90.70
70103;BME280;57470;50.034;15.256;2023-07-29T02:46:02;98825.75;;;20.19;91.21
70103;BME280;57470;50.034;15.256;2023-07-29T02:48:28;98833.38;;;20.39;90.26
70103;BME280;57470;50.034;15.256;2023-07-29T02:50:54;98822.88;;;20.21;90.43
70103;BME280;57470;50.034;15.256;2023-07-29T02:53:19;98816.25;;;20.23;90.60
70103;BME280;57470;50.034;15.256;2023-07-29T02:55:45;98829.47;;;20.18;90.97
70103;BME280;57470;50.034;15.256;2023-07-29T02:58:10;98824.59;;;20.14;90.71
70103;BME280;57470;50.034;15.256;2023-07-29T03:00:36;98827.81;;;20.32;89.61
70103;BME280;57470;50.034;15.256;2023-07-29T03:03:01;98827.44;;;20.20;90.01
70103;BME280;57470;50.034;15.256;2023-07-29T03:05:27;98829.50;;;20.33;89.72
70103;BME280;57470;50.034;15.256;2023-07-29T03:07:53;98830.03;;;20.37;89.74
70103;BME280;57470;50.034;15.256;2023-07-29T03:10:18;98831.03;;;20.36;89.43
70103;BME280;57470;50.034;15.256;2023-07-29T03:12:43;98830.25;;;20.27;89.98
70103;BME280;57470;50.034;15.256;2023-07-29T03:15:09;98835.25;;;20.38;89.64
70103;BME280;57470;50.034;15.256;2023-07-29T03:17:34;98829.31;;;20.20;90.45
70103;BME280;57470;50.034;15.256;2023-07-29T03:20:00;98827.38;;;20.29;90.07
70103;BME280;57470;50.034;15.256;2023-07-29T03:22:25;98825.28;;;20.39;89.56
70103;BME280;57470;50.034;15.256;2023-07-29T03:24:50;98825.97;;;20.33;89.70
70103;BME280;57470;50.034;15.256;2023-07-29T03:27:16;98828.16;;;20.37;90.10
70103;BME280;57470;50.034;15.256;2023-07-29T03:29:41;98824.06;;;20.41;89.77
70103;BME280;57470;50.034;15.256;2023-07-29T03:32:07;98817.81;;;20.41;90.13
70103;BME280;57470;50.034;15.256;2023-07-29T03:34:33;98826.97;;;20.40;90.56
70103;BME280;57470;50.034;15.256;2023-07-29T03:37:00;98830.13;;;20.43;90.06
70103;BME280;57470;50.034;15.256;2023-07-29T03:39:26;98824.66;;;20.29;90.54
70103;BME280;57470;50.034;15.256;2023-07-29T03:41:51;98830.47;;;20.40;90.68
70103;BME280;57470;50.034;15.256;2023-07-29T03:44:17;98827.06;;;20.23;91.34
70103;BME280;57470;50.034;15.256;2023-07-29T03:46:44;98832.38;;;20.40;90.72
70103;BME280;57470;50.034;15.256;2023-07-29T03:49:10;98831.28;;;20.49;90.49
70103;BME280;57470;50.034;15.256;2023-07-29T03:51:35;98833.47;;;20.22;91.79
70103;BME280;57470;50.034;15.256;2023-07-29T03:54:01;98836.44;;;20.36;91.51
70103;BME280;57470;50.034;15.256;2023-07-29T03:56:26;98838.13;;;20.37;90.42
70103;BME280;57470;50.034;15.256;2023-07-29T03:58:52;98830.97;;;20.44;90.64
70103;BME280;57470;50.034;15.256;2023-07-29T04:01:19;98829.16;;;20.74;89.55
70103;BME280;57470;50.034;15.256;2023-07-29T04:03:45;98828.63;;;20.41;91.27
70103;BME280;57470;50.034;15.256;2023-07-29T04:06:11;98827.91;;;20.47;91.23
70103;BME280;57470;50.034;15.256;2023-07-29T04:08:37;98832.44;;;20.84;89.98
70103;BME280;57470;50.034;15.256;2023-07-29T04:11:02;98833.34;;;21.06;89.04
70103;BME280;57470;50.034;15.256;2023-07-29T04:13:28;98829.81;;;20.90;89.81
70103;BME280;57470;50.034;15.256;2023-07-29T04:15:53;98831.38;;;20.85;90.15
70103;BME280;57470;50.034;15.256;2023-07-29T04:18:19;98832.06;;;21.02;88.85
70103;BME280;57470;50.034;15.256;2023-07-29T04:20:44;98832.31;;;21.36;88.38
70103;BME280;57470;50.034;15.256;2023-07-29T04:23:09;98827.03;;;21.64;89.73
70103;BME280;57470;50.034;15.256;2023-07-29T04:25:35;98828.28;;;22.25;87.25
70103;BME280;57470;50.034;15.256;2023-07-29T04:28:00;98829.84;;;22.62;87.16
70103;BME280;57470;50.034;15.256;2023-07-29T04:30:28;98831.91;;;22.88;84.51
70103;BME280;57470;50.034;15.256;2023-07-29T04:32:53;98825.66;;;23.29;82.19
70103;BME280;57470;50.034;15.256;2023-07-29T04:35:18;98828.41;;;23.35;81.27
70103;BME280;57470;50.034;15.256;2023-07-29T04:37:44;98820.00;;;22.55;81.72
70103;BME280;57470;50.034;15.256;2023-07-29T04:40:10;98819.63;;;22.92;81.17
70103;BME280;57470;50.034;15.256;2023-07-29T04:42:36;98831.94;;;22.67;81.99
70103;BME280;57470;50.034;15.256;2023-07-29T04:45:02;98827.81;;;22.99;80.60
70103;BME280;57470;50.034;15.256;2023-07-29T04:47:29;98824.94;;;23.07;80.13
70103;BME280;57470;50.034;15.256;2023-07-29T04:49:54;98826.34;;;22.96;80.31
70103;BME280;57470;50.034;15.256;2023-07-29T04:52:19;98826.75;;;22.16;83.46
70103;BME280;57470;50.034;15.256;2023-07-29T04:54:45;98836.28;;;22.61;81.36
70103;BME280;57470;50.034;15.256;2023-07-29T04:57:11;98839.28;;;22.73;81.85
70103;BME280;57470;50.034;15.256;2023-07-29T04:59:37;98839.91;;;22.47;83.72
70103;BME280;57470;50.034;15.256;2023-07-29T05:02:02;98846.56;;;23.00;80.85
70103;BME280;57470;50.034;15.256;2023-07-29T05:04:28;98841.88;;;23.15;80.30
70103;BME280;57470;50.034;15.256;2023-07-29T05:06:53;98839.78;;;22.83;81.99
70103;BME280;57470;50.034;15.256;2023-07-29T05:09:19;98847.34;;;22.38;83.50
70103;BME280;57470;50.034;15.256;2023-07-29T05:11:45;98840.63;;;22.83;81.50
70103;BME280;57470;50.034;15.256;2023-07-29T05:14:13;98839.50;;;22.99;80.87
70103;BME280;57470;50.034;15.256;2023-07-29T05:16:39;98846.47;;;22.80;81.63
70103;BME280;57470;50.034;15.256;2023-07-29T05:19:04;98850.81;;;22.75;81.57
70103;BME280;57470;50.034;15.256;2023-07-29T05:21:30;98850.00;;;21.89;85.13
70103;BME280;57470;50.034;15.256;2023-07-29T05:23:55;98851.25;;;22.08;84.75
70103;BME280;57470;50.034;15.256;2023-07-29T05:26:22;98858.31;;;22.52;83.86
70103;BME280;57470;50.034;15.256;2023-07-29T05:28:47;98859.81;;;22.33;84.04
70103;BME280;57470;50.034;15.256;2023-07-29T05:31:12;98852.84;;;22.73;82.66
70103;BME280;57470;50.034;15.256;2023-07-29T05:33:38;98844.84;;;21.58;88.34
70103;BME280;57470;50.034;15.256;2023-07-29T05:36:03;98852.84;;;22.45;85.35
70103;BME280;57470;50.034;15.256;2023-07-29T05:38:30;98849.16;;;22.53;83.69
70103;BME280;57470;50.034;15.256;2023-07-29T05:40:55;98858.16;;;21.75;86.78
70103;BME280;57470;50.034;15.256;2023-07-29T05:43:21;98859.72;;;21.84;86.85
70103;BME280;57470;50.034;15.256;2023-07-29T05:45:46;98855.00;;;21.71;87.00
70103;BME280;57470;50.034;15.256;2023-07-29T05:48:11;98861.50;;;21.41;87.71
70103;BME280;57470;50.034;15.256;2023-07-29T05:50:37;98853.88;;;22.23;85.21
70103;BME280;57470;50.034;15.256;2023-07-29T05:53:02;98863.28;;;22.48;83.75
70103;BME280;57470;50.034;15.256;2023-07-29T05:55:27;98864.44;;;22.39;84.42
70103;BME280;57470;50.034;15.256;2023-07-29T05:57:53;98870.88;;;22.59;82.92
70103;BME280;57470;50.034;15.256;2023-07-29T06:00:18;98866.03;;;22.76;82.73
70103;BME280;57470;50.034;15.256;2023-07-29T06:02:44;98858.78;;;22.34;84.11
70103;BME280;57470;50.034;15.256;2023-07-29T06:05:09;98861.94;;;22.37;83.36
70103;BME280;57470;50.034;15.256;2023-07-29T06:07:35;98865.19;;;22.05;85.26
70103;BME280;57470;50.034;15.256;2023-07-29T06:10:00;98866.22;;;22.25;83.74
70103;BME280;57470;50.034;15.256;2023-07-29T06:12:25;98855.53;;;22.17;83.87
70103;BME280;57470;50.034;15.256;2023-07-29T06:14:51;98855.78;;;22.01;84.33
70103;BME280;57470;50.034;15.256;2023-07-29T06:17:17;98859.38;;;22.29;83.38
70103;BME280;57470;50.034;15.256;2023-07-29T06:19:42;98864.53;;;22.03;83.80
70103;BME280;57470;50.034;15.256;2023-07-29T06:22:09;98862.84;;;22.23;83.96
70103;BME280;57470;50.034;15.256;2023-07-29T06:24:35;98861.19;;;22.01;84.04
70103;BME280;57470;50.034;15.256;2023-07-29T06:27:00;98864.31;;;22.47;83.04
70103;BME280;57470;50.034;15.256;2023-07-29T06:29:25;98868.38;;;22.58;82.83
70103;BME280;57470;50.034;15.256;2023-07-29T06:31:51;98873.25;;;22.69;82.54
70103;BME280;57470;50.034;15.256;2023-07-29T06:34:17;98862.34;;;22.34;84.63
70103;BME280;57470;50.034;15.256;2023-07-29T06:36:42;98866.47;;;22.30;84.12
70103;BME280;57470;50.034;15.256;2023-07-29T06:39:08;98863.06;;;22.71;83.25
70103;BME280;57470;50.034;15.256;2023-07-29T06:41:33;98861.13;;;23.62;81.27
70103;BME280;57470;50.034;15.256;2023-07-29T06:43:58;98865.94;;;23.73;79.44
70103;BME280;57470;50.034;15.256;2023-07-29T06:46:24;98860.81;;;23.43;80.89
70103;BME280;57470;50.034;15.256;2023-07-29T06:48:49;98863.38;;;23.51;78.73
70103;BME280;57470;50.034;15.256;2023-07-29T06:51:15;98857.13;;;23.58;78.16
70103;BME280;57470;50.034;15.256;2023-07-29T06:53:40;98848.66;;;23.87;78.50
70103;BME280;57470;50.034;15.256;2023-07-29T06:56:06;98854.50;;;23.90;77.92
70103;BME280;57470;50.034;15.256;2023-07-29T06:58:32;98846.78;;;23.94;78.59
70103;BME280;57470;50.034;15.256;2023-07-29T07:00:57;98845.56;;;23.97;76.89
70103;BME280;57470;50.034;15.256;2023-07-29T07:03:22;98842.28;;;23.53;77.97
70103;BME280;57470;50.034;15.256;2023-07-29T07:05:48;98851.31;;;23.61;78.40
70103;BME280;57470;50.034;15.256;2023-07-29T07:08:13;98844.03;;;23.74;77.11
70103;BME280;57470;50.034;15.256;2023-07-29T07:10:39;98843.56;;;23.64;78.05
70103;BME280;57470;50.034;15.256;2023-07-29T07:13:04;98842.41;;;24.00;76.19
70103;BME280;57470;50.034;15.256;2023-07-29T07:15:29;98833.91;;;24.36;74.85
70103;BME280;57470;50.034;15.256;2023-07-29T07:17:55;98830.34;;;24.75;74.79
70103;BME280;57470;50.034;15.256;2023-07-29T07:20:20;98819.06;;;24.38;74.78
70103;BME280;57470;50.034;15.256;2023-07-29T07:22:45;98819.28;;;24.56;73.88
70103;BME280;57470;50.034;15.256;2023-07-29T07:25:11;98821.13;;;24.62;74.65
70103;BME280;57470;50.034;15.256;2023-07-29T07:27:37;98824.44;;;24.91;73.22
70103;BME280;57470;50.034;15.256;2023-07-29T07:30:03;98824.97;;;25.32;72.17
70103;BME280;57470;50.034;15.256;2023-07-29T07:32:28;98828.53;;;25.39;71.28
70103;BME280;57470;50.034;15.256;2023-07-29T07:34:54;98832.69;;;25.42;71.04
70103;BME280;57470;50.034;15.256;2023-07-29T07:37:19;98825.97;;;25.45;70.80
70103;BME280;57470;50.034;15.256;2023-07-29T07:39:44;98831.16;;;25.59;70.94
70103;BME280;57470;50.034;15.256;2023-07-29T07:42:10;98826.84;;;25.38;70.73
70103;BME280;57470;50.034;15.256;2023-07-29T07:44:35;98819.56;;;25.26;72.58
70103;BME280;57470;50.034;15.256;2023-07-29T07:47:00;98818.38;;;25.98;69.47
70103;BME280;57470;50.034;15.256;2023-07-29T07:49:26;98830.16;;;25.47;70.99
70103;BME280;57470;50.034;15.256;2023-07-29T07:51:51;98819.22;;;25.54;70.85
70103;BME280;57470;50.034;15.256;2023-07-29T07:54:17;98827.19;;;25.55;71.00
70103;BME280;57470;50.034;15.256;2023-07-29T07:56:43;98816.28;;;24.91;71.49
70103;BME280;57470;50.034;15.256;2023-07-29T07:59:08;98819.09;;;25.35;71.10
70103;BME280;57470;50.034;15.256;2023-07-29T08:01:38;98822.25;;;25.32;70.13
70103;BME280;57470;50.034;15.256;2023-07-29T08:04:04;98810.31;;;25.78;69.38
70103;BME280;57470;50.034;15.256;2023-07-29T08:06:30;98808.72;;;26.02;69.40
70103;BME280;57470;50.034;15.256;2023-07-29T08:08:56;98810.19;;;25.66;69.51
70103;BME280;57470;50.034;15.256;2023-07-29T08:11:22;98807.59;;;25.78;68.17
70103;BME280;57470;50.034;15.256;2023-07-29T08:13:47;98802.97;;;25.40;70.30
70103;BME280;57470;50.034;15.256;2023-07-29T08:16:12;98809.59;;;24.87;70.55
70103;BME280;57470;50.034;15.256;2023-07-29T08:18:38;98803.75;;;24.77;71.71
70103;BME280;57470;50.034;15.256;2023-07-29T08:21:03;98804.25;;;25.25;69.96
70103;BME280;57470;50.034;15.256;2023-07-29T08:23:30;98817.56;;;24.95;70.79
70103;BME280;57470;50.034;15.256;2023-07-29T08:25:58;98811.97;;;24.50;72.50
70103;BME280;57470;50.034;15.256;2023-07-29T08:28:35;98819.66;;;24.93;72.23
70103;BME280;57470;50.034;15.256;2023-07-29T08:31:01;98814.63;;;25.03;71.73
70103;BME280;57470;50.034;15.256;2023-07-29T08:33:27;98809.31;;;25.21;70.27
70103;BME280;57470;50.034;15.256;2023-07-29T08:35:53;98801.03;;;24.83;72.83
70103;BME280;57470;50.034;15.256;2023-07-29T08:38:19;98791.25;;;24.29;72.75
70103;BME280;57470;50.034;15.256;2023-07-29T08:40:58;98791.03;;;24.44;72.68
70103;BME280;57470;50.034;15.256;2023-07-29T08:43:29;98786.81;;;24.75;71.81
70103;BME280;57470;50.034;15.256;2023-07-29T08:45:58;98778.91;;;24.27;71.85
70103;BME280;57470;50.034;15.256;2023-07-29T08:48:32;98774.81;;;25.53;68.50
70103;BME280;57470;50.034;15.256;2023-07-29T08:50:59;98778.94;;;25.69;69.21
70103;BME280;57470;50.034;15.256;2023-07-29T08:53:26;98766.03;;;26.14;66.70
70103;BME280;57470;50.034;15.256;2023-07-29T08:55:53;98769.94;;;26.49;65.22
70103;BME280;57470;50.034;15.256;2023-07-29T08:58:21;98770.16;;;26.73;64.76
70103;BME280;57470;50.034;15.256;2023-07-29T09:00:48;98773.09;;;26.71;64.84
70103;BME280;57470;50.034;15.256;2023-07-29T09:03:13;98779.63;;;26.88;64.67
70103;BME280;57470;50.034;15.256;2023-07-29T09:05:39;98782.47;;;26.07;66.05
70103;BME280;57470;50.034;15.256;2023-07-29T09:08:04;98783.28;;;26.82;63.61
70103;BME280;57470;50.034;15.256;2023-07-29T09:10:30;98780.91;;;26.93;64.55
70103;BME280;57470;50.034;15.256;2023-07-29T09:12:55;98779.94;;;26.06;66.51
70103;BME280;57470;50.034;15.256;2023-07-29T09:15:28;98781.53;;;25.51;66.85
70103;BME280;57470;50.034;15.256;2023-07-29T09:17:56;98780.66;;;26.26;65.38
70103;BME280;57470;50.034;15.256;2023-07-29T09:20:28;98783.09;;;26.59;64.78
70103;BME280;57470;50.034;15.256;2023-07-29T09:22:55;98775.59;;;26.55;65.90
70103;BME280;57470;50.034;15.256;2023-07-29T09:25:25;98788.44;;;26.90;64.85
70103;BME280;57470;50.034;15.256;2023-07-29T09:27:51;98788.16;;;26.56;65.31
70103;BME280;57470;50.034;15.256;2023-07-29T09:30:16;98783.34;;;26.76;64.74
70103;BME280;57470;50.034;15.256;2023-07-29T09:32:42;98786.59;;;26.66;65.88
70103;BME280;57470;50.034;15.256;2023-07-29T09:35:11;98783.56;;;26.56;65.11
70103;BME280;57470;50.034;15.256;2023-07-29T09:37:38;98779.28;;;27.03;63.99
70103;BME280;57470;50.034;15.256;2023-07-29T09:40:05;98781.78;;;27.05;64.85
70103;BME280;57470;50.034;15.256;2023-07-29T09:42:31;98782.09;;;26.97;64.34
70103;BME280;57470;50.034;15.256;2023-07-29T09:44:57;98780.09;;;27.40;64.01
70103;BME280;57470;50.034;15.256;2023-07-29T09:47:24;98777.28;;;26.74;63.62
70103;BME280;57470;50.034;15.256;2023-07-29T09:49:52;98774.38;;;26.69;64.71
70103;BME280;57470;50.034;15.256;2023-07-29T09:52:22;98774.53;;;26.99;64.32
70103;BME280;57470;50.034;15.256;2023-07-29T09:54:48;98773.22;;;27.68;62.31
70103;BME280;57470;50.034;15.256;2023-07-29T09:57:15;98771.28;;;27.56;63.84
70103;BME280;57470;50.034;15.256;2023-07-29T09:59:41;98764.78;;;27.21;62.90
70103;BME280;57470;50.034;15.256;2023-07-29T10:02:13;98766.91;;;26.82;64.50
70103;BME280;57470;50.034;15.256;2023-07-29T10:04:43;98763.59;;;26.99;63.55
70103;BME280;57470;50.034;15.256;2023-07-29T10:07:10;98772.53;;;27.06;63.02
70103;BME280;57470;50.034;15.256;2023-07-29T10:09:37;98769.53;;;26.52;64.13
70103;BME280;57470;50.034;15.256;2023-07-29T10:12:05;98786.38;;;26.86;64.26
70103;BME280;57470;50.034;15.256;2023-07-29T10:14:31;98784.06;;;26.46;64.49
70103;BME280;57470;50.034;15.256;2023-07-29T10:16:57;98783.19;;;26.28;65.89
70103;BME280;57470;50.034;15.256;2023-07-29T10:19:24;98784.63;;;25.99;66.54
70103;BME280;57470;50.034;15.256;2023-07-29T10:21:51;98791.19;;;26.47;65.10
70103;BME280;57470;50.034;15.256;2023-07-29T10:24:19;98787.72;;;27.02;65.08
70103;BME280;57470;50.034;15.256;2023-07-29T10:26:49;98775.09;;;26.82;65.83
70103;BME280;57470;50.034;15.256;2023-07-29T10:29:19;98780.09;;;26.85;65.52
70103;BME280;57470;50.034;15.256;2023-07-29T10:31:46;98771.44;;;27.61;61.98
70103;BME280;57470;50.034;15.256;2023-07-29T10:34:13;98769.94;;;27.29;61.98
70103;BME280;57470;50.034;15.256;2023-07-29T10:36:40;98764.03;;;27.32;63.28
70103;BME280;57470;50.034;15.256;2023-07-29T10:39:07;98765.69;;;27.93;61.89
70103;BME280;57470;50.034;15.256;2023-07-29T10:41:58;98751.94;;;27.58;60.68
70103;BME280;57470;50.034;15.256;2023-07-29T10:47:15;98747.75;;;28.27;60.65
70103;BME280;57470;50.034;15.256;2023-07-29T10:49:41;98752.59;;;28.36;60.44
70103;BME280;57470;50.034;15.256;2023-07-29T10:52:07;98744.59;;;27.40;60.62
70103;BME280;57470;50.034;15.256;2023-07-29T10:54:42;98742.13;;;27.50;60.55
70103;BME280;57470;50.034;15.256;2023-07-29T10:57:15;98733.22;;;27.43;61.76
70103;BME280;57470;50.034;15.256;2023-07-29T10:59:41;98733.31;;;27.67;59.60
70103;BME280;57470;50.034;15.256;2023-07-29T11:02:18;98732.50;;;27.78;59.69
70103;BME280;57470;50.034;15.256;2023-07-29T11:04:50;98723.13;;;28.27;59.38
70103;BME280;57470;50.034;15.256;2023-07-29T11:09:57;98720.38;;;28.38;58.00
70103;BME280;57470;50.034;15.256;2023-07-29T11:12:45;98711.22;;;28.56;59.18
70103;BME280;57470;50.034;15.256;2023-07-29T11:17:41;98706.56;;;28.57;57.83
70103;BME280;57470;50.034;15.256;2023-07-29T11:20:07;98696.09;;;28.07;59.41
70103;BME280;57470;50.034;15.256;2023-07-29T11:22:34;98704.41;;;28.82;59.30
70103;BME280;57470;50.034;15.256;2023-07-29T11:24:59;98704.84;;;29.02;56.95
70103;BME280;57470;50.034;15.256;2023-07-29T11:27:25;98695.34;;;28.93;57.18
70103;BME280;57470;50.034;15.256;2023-07-29T11:29:56;98686.38;;;29.09;58.45
70103;BME280;57470;50.034;15.256;2023-07-29T11:32:22;98676.78;;;28.95;57.56
70103;BME280;57470;50.034;15.256;2023-07-29T11:34:48;98671.34;;;28.14;58.91
70103;BME280;57470;50.034;15.256;2023-07-29T11:37:13;98668.22;;;28.92;57.79
70103;BME280;57470;50.034;15.256;2023-07-29T11:39:41;98669.84;;;29.04;57.06
70103;BME280;57470;50.034;15.256;2023-07-29T11:42:11;98672.19;;;29.13;56.89
70103;BME280;57470;50.034;15.256;2023-07-29T11:44:37;98665.59;;;29.54;56.43
70103;BME280;57470;50.034;15.256;2023-07-29T11:47:06;98661.38;;;29.34;57.38
70103;BME280;57470;50.034;15.256;2023-07-29T11:49:33;98660.50;;;29.45;56.68
70103;BME280;57470;50.034;15.256;2023-07-29T11:51:58;98658.38;;;29.64;56.97
70103;BME280;57470;50.034;15.256;2023-07-29T11:54:24;98652.56;;;29.61;55.53
70103;BME280;57470;50.034;15.256;2023-07-29T11:56:50;98664.38;;;29.33;56.48
70103;BME280;57470;50.034;15.256;2023-07-29T11:59:15;98648.34;;;28.73;57.30
70103;BME280;57470;50.034;15.256;2023-07-29T12:01:41;98656.63;;;28.38;58.27
70103;BME280;57470;50.034;15.256;2023-07-29T12:04:06;98655.19;;;28.12;59.56
70103;BME280;57470;50.034;15.256;2023-07-29T12:06:32;98644.03;;;28.25;59.63
70103;BME280;57470;50.034;15.256;2023-07-29T12:08:58;98648.16;;;28.05;58.92
70103;BME280;57470;50.034;15.256;2023-07-29T12:11:24;98668.88;;;27.17;60.46
70103;BME280;57470;50.034;15.256;2023-07-29T12:13:49;98722.88;;;24.13;81.20
70103;BME280;57470;50.034;15.256;2023-07-29T12:16:17;98752.31;;;23.70;86.12
70103;BME280;57470;50.034;15.256;2023-07-29T12:18:43;98754.81;;;22.69;88.13
70103;BME280;57470;50.034;15.256;2023-07-29T12:21:09;98761.09;;;22.42;89.02
70103;BME280;57470;50.034;15.256;2023-07-29T12:23:35;98769.09;;;22.57;91.34
70103;BME280;57470;50.034;15.256;2023-07-29T12:26:01;98758.09;;;22.30;89.69
70103;BME280;57470;50.034;15.256;2023-07-29T12:28:26;98763.78;;;22.70;88.24
70103;BME280;57470;50.034;15.256;2023-07-29T12:30:55;98763.53;;;22.65;88.84
70103;BME280;57470;50.034;15.256;2023-07-29T12:33:35;98769.81;;;22.37;85.62
70103;BME280;57470;50.034;15.256;2023-07-29T12:36:01;98767.75;;;22.39;83.90
70103;BME280;57470;50.034;15.256;2023-07-29T12:38:27;98779.88;;;22.43;82.42
70103;BME280;57470;50.034;15.256;2023-07-29T12:40:53;98763.81;;;21.71;83.93
70103;BME280;57470;50.034;15.256;2023-07-29T12:43:18;98765.16;;;21.82;85.49
70103;BME280;57470;50.034;15.256;2023-07-29T12:45:44;98760.44;;;22.12;84.97
70103;BME280;57470;50.034;15.256;2023-07-29T12:48:10;98756.50;;;21.93;84.98
70103;BME280;57470;50.034;15.256;2023-07-29T12:50:36;98753.88;;;21.57;88.61
70103;BME280;57470;50.034;15.256;2023-07-29T12:53:02;98766.97;;;22.18;86.77
70103;BME280;57470;50.034;15.256;2023-07-29T12:55:27;98767.66;;;22.54;85.08
70103;BME280;57470;50.034;15.256;2023-07-29T12:57:53;98760.63;;;22.66;86.09
70103;BME280;57470;50.034;15.256;2023-07-29T13:00:18;98756.81;;;22.89;86.29
70103;BME280;57470;50.034;15.256;2023-07-29T13:02:43;98755.50;;;22.50;85.37